Pagrindinis puslapis
METAR-TAF:

METAR-TAF

Oro uostai :

Havana, Kuba

platuma: 22-59N, ilguma: 082-24W, Aukštis: 59 m

Dabartinis oras

Ataskaita buvo paskelbta 43 minutes, ne 12:55 UTC
Ramus vėjas
Temperatūra 16°C
Drėgmė 100%
Slėgis 1020 hPa
Matomumas 10 km arba daugiau
Su prošvaistėmis ne aukštis 3600 ft

METAR: MUHA 211255Z 00000KT 9999 BKN036 16/16 Q1020

Laikas: 08:38 (13:38 UTC)

Prognozė

Ataskaita buvo paskelbta 2 valandos ir 38 minutes, ne 11:00 UTC
Prognozė galioja nuo 21 metu 12 UTC su 22 metu 12 UTC
Vėjas 3 kt nuo kintamojo kryptimis
Matomumas: 9000 m
Mažai debesys ne aukštis 4000 ft
Tapsmas
nuo 21 metu 13 UTC su 21 metu 15 UTC
Vėjas 11 kt iš Rytų
Tapsmas
nuo 22 metu 01 UTC su 22 metu 03 UTC
Vėjas 3 kt nuo kintamojo kryptimis

TAF: MUHA 211100Z 2112/2212 VRB03KT 9000 FEW040 BECMG 2113/2115 08011KT BECMG 2201/2203 VRB03KT

Orai ataskaitas ir orų prognozės (METAR, TAF).

turimą stotys yra geltonos ir raudonos taškus žemėlapyje.

Perkelti pele per norėdami pamatyti stoties vardą.

Tada spustelėkite, norėdami matyti oro stebėjimo ir prognozės.

Norėdami pakeisti žemėlapį: spustelėkite ant žalios mygtukų su juodo kryžiaus žemyn,; žalią mygtuką su brūkšneliu, jei norite nutolinti; arba žalių rodyklių gretimoms žemėlapius.


METAR-TAF: